Arkholme, United Kingdom
Current Conditions -  °F | °C
As of 12:20 PM on Monday 26 Jan 2015 (Local Time) from EGNH Reporting Station
Few Clouds Few Clouds  
Wind Chill: 36°   Ceiling: Unl
Heat Index: 45°   Visibility: 6mi
Dew Point: 39°   Wind: 22mph
Humidity: 81%   Direction: 280°W
Pressure: 30.21"   Gusts: NA
Location:  54.13°N, 2.75°W
Report Text: EGNH 261220Z 28019KT 9999 FEW032 07/04 Q1023
Loading
Personal Weather Stations






























Interactive Weather Map New forecast layout! Learn more

10-Day Weather Forecast

Advertisements
Track Severe Weather on mobile